Time;durP1;ratioP1;P1;durP2;ratioP2;P2;SDS_P1;SDS_P2;PMS_P1;PMS_P2;Temp;Humidity;BMP_temperature;BMP_pressure;BME280_temperature;BME280_humidity;BME280_pressure;Samples;Min_cycle;Max_cycle;Signal;HPM_P1;HPM_P2
2021/06/16 00:00:28;;;;;;;;;;;;;;;19.54;51.37;100422.59;4499015;31;20422;-82
2021/06/16 00:02:58;;;;;;;8.40;5.47;;;;;;;19.62;51.95;100423.13;4498718;31;19987;-82
2021/06/16 00:05:32;;;;;;;8.82;5.57;;;;;;;19.69;52.22;100416.63;4498711;31;20230;-82
2021/06/16 00:08:04;;;;;;;6.45;4.82;;;;;;;19.61;53.07;100416.06;4498223;31;20092;-83
2021/06/16 00:10:33;;;;;;;9.25;5.45;;;;;;;19.63;52.69;100411.53;4498539;31;20431;-82
2021/06/16 00:13:14;;;;;;;;;;;;;;;;;;;;;
2021/06/16 00:15:52;;;;;;;7.32;5.47;;;;;;;19.51;52.08;100418.25;4499634;31;20538;-83
2021/06/16 00:18:24;;;;;;;8.95;4.45;;;;;;;19.59;51.37;100415.28;4498485;31;20110;-82
2021/06/16 00:20:55;;;;;;;8.20;4.95;;;;;;;19.45;52.30;100417.66;4498511;31;20092;-83
2021/06/16 00:23:30;;;;;;;8.65;4.60;;;;;;;19.37;52.90;100425.09;4498623;31;20100;-81
2021/06/16 00:26:02;;;;;;;10.93;5.90;;;;;;;19.35;52.34;100418.94;4498478;31;20135;-82
2021/06/16 00:28:31;;;;;;;9.55;4.75;;;;;;;19.12;53.16;100418.12;4498393;31;20132;-82
2021/06/16 00:31:20;;;;;;;8.38;4.97;;;;;;;19.24;52.26;100420.28;4498497;31;20088;-82
2021/06/16 00:33:57;;;;;;;8.38;5.15;;;;;;;19.22;53.33;100424.78;4498420;31;20147;-83
2021/06/16 00:36:36;;;;;;;;;;;;;;;;;;;;;
2021/06/16 00:39:07;;;;;;;9.02;4.90;;;;;;;19.56;52.52;100425.19;4499443;31;20088;-83
2021/06/16 00:41:40;;;;;;;8.95;5.43;;;;;;;19.18;53.88;100425.88;4498445;31;20114;-82
2021/06/16 00:44:22;;;;;;;7.53;4.62;;;;;;;19.25;53.73;100422.00;4498550;31;20111;-83
2021/06/16 00:47:00;;;;;;;8.90;4.90;;;;;;;19.17;53.37;100426.78;4498421;31;20405;-82
2021/06/16 00:49:44;;;;;;;7.18;4.03;;;;;;;19.16;52.83;100419.72;4486535;31;20137;-83
2021/06/16 00:52:13;;;;;;;7.95;5.43;;;;;;;19.16;52.01;100416.19;4482605;32;20092;-83
2021/06/16 00:55:11;;;;;;;9.45;5.05;;;;;;;19.22;52.25;100411.47;4473379;32;20104;-83
2021/06/16 00:57:45;;;;;;;10.07;6.18;;;;;;;19.04;53.59;100413.09;4482467;32;20121;-82
2021/06/16 01:00:24;;;;;;;10.32;5.25;;;;;;;19.17;53.24;100413.44;4482429;32;20096;-83
2021/06/16 01:03:00;;;;;;;8.90;5.25;;;;;;;19.31;52.48;100415.56;4482654;32;20437;-82
2021/06/16 01:06:12;;;;;;;7.40;4.50;;;;;;;19.39;52.22;100408.12;4482565;32;20453;-82
2021/06/16 01:09:07;;;;;;;6.78;4.40;;;;;;;19.33;51.37;100399.53;4482269;32;20118;-82
2021/06/16 01:11:59;;;;;;;9.48;4.40;;;;;;;19.22;51.01;100405.28;4482451;32;20101;-83
2021/06/16 01:14:41;;;;;;;13.02;6.35;;;;;;;18.98;52.15;100401.84;4482420;32;20527;-83
2021/06/16 01:17:18;;;;;;;8.40;5.18;;;;;;;19.32;51.73;100400.44;4482238;32;20416;-83
2021/06/16 01:20:01;;;;;;;7.07;4.62;;;;;;;19.22;53.08;100403.50;4481182;32;20092;-81
2021/06/16 01:22:51;;;;;;;;;;;;;;;;;;;;;
2021/06/16 01:25:39;;;;;;;11.10;5.43;;;;;;;19.08;51.64;100397.00;4483382;31;20106;-82
2021/06/16 01:28:18;;;;;;;9.48;5.43;;;;;;;19.06;52.82;100400.59;4482585;32;20092;-83
2021/06/16 01:30:54;;;;;;;9.23;5.65;;;;;;;18.96;53.99;100398.38;4482294;32;20477;-83
2021/06/16 01:33:31;;;;;;;9.90;5.95;;;;;;;19.13;53.59;100393.22;4482273;32;20092;-83
2021/06/16 01:36:06;;;;;;;9.82;5.57;;;;;;;19.14;53.91;100396.75;4482198;32;20487;-82
2021/06/16 01:38:37;;;;;;;9.43;6.15;;;;;;;18.89;55.09;100392.44;4482245;32;20474;-83
2021/06/16 01:41:16;;;;;;;8.90;5.05;;;;;;;18.79;55.57;100389.25;4482154;32;20096;-83
2021/06/16 01:43:44;;;;;;;5.37;3.58;;;;;;;18.36;55.58;100388.25;4482164;32;20410;-83
2021/06/16 01:46:16;;;;;;;8.07;5.32;;;;;;;18.49;55.75;100379.78;4482408;32;20080;-83
2021/06/16 01:48:49;;;;;;;7.37;5.05;;;;;;;18.57;54.75;100383.88;4489178;31;20157;-82
2021/06/16 01:51:32;;;;;;;;;;;;;;;;;;;;;
2021/06/16 01:54:21;;;;;;;;;;;;;;;;;;;;;
2021/06/16 01:56:49;;;;;;;8.60;5.10;;;;;;;18.59;54.09;100383.84;4499104;31;20198;-83
2021/06/16 01:59:24;;;;;;;7.00;4.50;;;;;;;18.46;54.10;100383.44;4497990;31;20100;-82
2021/06/16 02:01:56;;;;;;;8.25;5.03;;;;;;;18.27;54.44;100382.41;4497895;31;20134;-83
2021/06/16 02:04:41;;;;;;;6.32;4.68;;;;;;;18.25;54.64;100385.13;4498068;31;20099;-82
2021/06/16 02:07:24;;;;;;;10.07;5.20;;;;;;;18.54;53.96;100386.66;4497789;31;20134;-82
2021/06/16 02:10:11;;;;;;;6.45;4.68;;;;;;;18.47;54.68;100394.94;4497865;31;20108;-82
2021/06/16 02:12:43;;;;;;;9.73;5.43;;;;;;;18.50;54.78;100385.06;4498061;31;20112;-83
2021/06/16 02:15:24;;;;;;;;;;;;;;;;;;;;;
2021/06/16 02:18:00;;;;;;;8.25;5.85;;;;;;;18.31;54.73;100392.87;4499377;31;20097;-82
2021/06/16 02:20:30;;;;;;;9.48;6.07;;;;;;;18.45;54.82;100386.16;4497722;31;20131;-82
2021/06/16 02:23:09;;;;;;;;;;;;;;;;;;;;;
2021/06/16 02:25:50;;;;;;;10.27;6.15;;;;;;;18.32;56.43;100385.75;4498904;31;20095;-83
2021/06/16 02:28:27;;;;;;;6.62;4.57;;;;;;;18.09;57.53;100383.97;4497800;31;20106;-81
2021/06/16 02:30:54;;;;;;;9.52;4.75;;;;;;;18.05;57.21;100382.34;4497081;31;20104;-82
2021/06/16 02:33:43;;;;;;;5.80;4.30;;;;;;;17.84;56.74;100383.97;4497688;31;20100;-82
2021/06/16 02:36:12;;;;;;;11.93;6.03;;;;;;;17.87;54.68;100378.56;4497197;31;20533;-82
2021/06/16 02:38:50;;;;;;;16.60;8.18;;;;;;;17.87;54.86;100383.88;4490132;31;202510;-81
2021/06/16 02:41:22;;;;;;;18.42;7.53;;;;;;;17.89;54.74;100372.28;4489267;31;20140;-82
2021/06/16 02:43:55;;;;;;;10.48;4.90;;;;;;;18.11;55.54;100371.47;4497432;31;20112;-81
2021/06/16 02:46:39;;;;;;;;;;;;;;;;;;;;;
2021/06/16 02:49:17;;;;;;;10.98;6.45;;;;;;;17.99;55.21;100377.25;4498597;31;20095;-82
2021/06/16 02:51:45;;;;;;;9.40;6.00;;;;;;;17.68;56.88;100379.19;4497232;31;20164;-83
2021/06/16 02:54:20;;;;;;;13.18;5.68;;;;;;;17.84;56.18;100376.00;4497208;31;20249;-82
2021/06/16 02:56:51;;;;;;;9.00;5.18;;;;;;;17.67;56.08;100387.19;4496990;31;20091;-83
2021/06/16 02:59:23;;;;;;;6.07;4.10;;;;;;;17.64;56.31;100377.53;4497212;31;20159;-82
2021/06/16 03:01:52;;;;;;;6.70;4.85;;;;;;;17.71;54.89;100389.72;4497096;31;20107;-82
2021/06/16 03:04:42;;;;;;;11.40;6.55;;;;;;;17.77;53.86;100395.72;4497464;31;20138;-82
2021/06/16 03:07:10;;;;;;;10.90;6.03;;;;;;;17.86;55.89;100392.78;4496910;31;20537;-83
2021/06/16 03:09:53;;;;;;;12.63;6.32;;;;;;;17.54;57.51;100394.75;4497432;31;20635;-81
2021/06/16 03:12:25;;;;;;;9.32;4.80;;;;;;;17.77;56.77;100393.94;4496849;31;20168;-83
2021/06/16 03:14:58;;;;;;;12.63;6.07;;;;;;;17.73;55.85;100391.44;4497109;31;20131;-82
2021/06/16 03:17:30;;;;;;;15.98;6.55;;;;;;;17.74;56.47;100398.50;4496847;31;20110;-83
2021/06/16 03:20:31;;;;;;;19.90;7.87;;;;;;;17.67;56.19;100398.69;4496283;31;20525;-82
2021/06/16 03:23:04;;;;;;;13.00;6.55;;;;;;;17.58;56.19;100396.34;4497103;31;20104;-82
2021/06/16 03:25:33;;;;;;;18.12;7.18;;;;;;;17.13;58.34;100401.44;4496624;31;20159;-83
2021/06/16 03:28:03;;;;;;;18.87;7.55;;;;;;;16.85;59.84;100407.63;4496618;31;20476;-82
2021/06/16 03:30:33;;;;;;;12.40;7.97;;;;;;;17.54;58.14;100407.16;4496847;31;20152;-82
2021/06/16 03:33:03;;;;;;;15.27;6.60;;;;;;;17.41;58.97;100410.25;4496715;31;20123;-82
2021/06/16 03:35:30;;;;;;;11.52;5.57;;;;;;;17.30;59.16;100417.69;4496474;31;20096;-82
2021/06/16 03:38:03;;;;;;;9.20;5.20;;;;;;;17.81;57.65;100416.84;4496804;31;20110;-82
2021/06/16 03:40:31;;;;;;;9.10;5.05;;;;;;;18.45;55.66;100410.97;4496503;31;20088;-82
2021/06/16 03:43:08;;;;;;;9.80;4.78;;;;;;;19.23;53.36;100407.00;4497466;31;20104;-82
2021/06/16 03:45:41;;;;;;;9.93;5.15;;;;;;;20.11;50.92;100407.66;4499139;31;20100;-82
2021/06/16 03:48:21;;;;;;;11.88;5.53;;;;;;;21.03;48.48;100411.41;4498996;31;20441;-82
2021/06/16 03:51:30;;;;;;;8.70;4.82;;;;;;;21.72;47.64;100410.63;4498586;31;20088;-83
2021/06/16 03:54:21;;;;;;;17.92;5.82;;;;;;;22.37;46.04;100402.72;4480652;31;20108;-82
2021/06/16 03:57:09;;;;;;;14.87;5.72;;;;;;;23.64;42.69;100397.25;4499785;31;20159;-82
2021/06/16 04:00:26;;;;;;;;;;;;;;;;;;;;;
2021/06/16 04:07:57;;;;;;;10.95;4.90;;;;;;;25.68;38.52;100400.34;4374560;32;20214;-83
2021/06/16 04:22:43;;;;;;;;;;;;;;;;;;;;;
2021/06/16 04:25:47;;;;;;;9.00;4.78;;;;;;;28.81;32.61;100419.25;4291707;33;20183;-84
2021/06/16 04:28:28;;;;;;;10.88;5.12;;;;;;;28.80;33.80;100423.78;4371574;32;20125;-82
2021/06/16 04:30:54;;;;;;;9.52;4.53;;;;;;;24.92;39.79;100436.75;4470300;31;20144;-82
2021/06/16 04:33:21;;;;;;;10.93;4.82;;;;;;;25.65;38.74;100450.81;4500316;31;20132;-82
2021/06/16 04:35:48;;;;;;;8.20;4.50;;;;;;;26.07;37.66;100446.19;4500255;31;20472;-82
2021/06/16 04:38:15;;;;;;;8.40;4.62;;;;;;;25.70;38.83;100444.16;4500123;31;20447;-83
2021/06/16 04:40:42;;;;;;;7.10;4.30;;;;;;;25.52;38.34;100446.25;4499977;31;20155;-83
2021/06/16 04:43:09;;;;;;;7.53;4.22;;;;;;;25.96;37.15;100438.84;4500108;31;20130;-83
2021/06/16 04:45:36;;;;;;;8.20;4.15;;;;;;;26.27;36.80;100440.25;4500023;31;20099;-83
2021/06/16 04:48:06;;;;;;;9.77;4.43;;;;;;;26.83;35.43;100437.19;4499891;31;20167;-83
2021/06/16 04:50:33;;;;;;;9.10;4.43;;;;;;;27.07;36.44;100437.22;4499949;31;20176;-83
2021/06/16 04:53:00;;;;;;;13.52;4.40;;;;;;;27.11;36.01;100436.84;4498247;31;20100;-82
2021/06/16 04:55:27;;;;;;;12.15;4.55;;;;;;;27.40;35.07;100437.41;4499975;31;20091;-82
2021/06/16 04:57:54;;;;;;;9.20;4.70;;;;;;;27.79;35.46;100431.78;4499798;31;20161;-83
2021/06/16 05:00:22;;;;;;;9.68;4.20;;;;;;;28.62;34.09;100430.66;4499891;31;20126;-83
2021/06/16 05:36:44;;;;;;;7.68;4.22;;;;;;;30.81;29.89;100454.56;4569955;27;20149;-81
2021/06/16 05:54:33;;;;;;;7.22;4.18;;;;;;;32.07;29.74;100451.94;4266055;33;20117;-81
2021/06/16 05:57:05;;;;;;;9.93;4.90;;;;;;;32.26;30.06;100451.88;4277621;33;20141;-81
2021/06/16 06:04:06;;;;;;;;;;;;;;;;;;;;;
2021/06/16 06:10:42;;;;;;;;;;;;;;;;;;;;;
2021/06/16 06:14:19;;;;;;;;;;;;;;;;;;;;;
2021/06/16 06:21:32;;;;;;;;;;;;;;;;;;;;;
2021/06/16 06:24:56;;;;;;;5.68;3.53;;;;;;;33.82;25.70;100453.72;4276165;33;20214;-81
2021/06/16 06:27:59;;;;;;;;;;;;;;;;;;;;;
2021/06/16 06:31:25;;;;;;;;;;;;;;;;;;;;;
2021/06/16 06:34:06;;;;;;;10.05;3.85;;;;;;;34.50;23.78;100451.13;4327628;33;20537;-80
2021/06/16 06:37:08;;;;;;;;;;;;;;;;;;;;;
2021/06/16 06:40:05;;;;;;;;;;;;;;;;;;;;;
2021/06/16 06:43:18;;;;;;;9.73;4.07;;;;;;;34.46;25.83;100447.00;4285908;33;20097;-80
2021/06/16 06:46:16;;;;;;;9.00;4.20;;;;;;;34.20;24.12;100449.75;4285450;33;20120;-80
2021/06/16 06:49:35;;;;;;;9.45;4.47;;;;;;;33.92;25.31;100446.31;4278429;33;20132;-80
2021/06/16 06:52:37;;;;;;;;;;;;;;;;;;;;;
2021/06/16 06:55:24;;;;;;;8.80;4.80;;;;;;;32.45;27.22;100455.59;4270350;33;20096;-81
2021/06/16 06:58:11;;;;;;;9.98;4.10;;;;;;;31.71;29.91;100467.09;4268714;33;20101;-80
2021/06/16 07:00:49;;;;;;;6.40;4.50;;;;;;;30.13;32.31;100460.44;4277741;33;20116;-80
2021/06/16 07:03:32;;;;;;;7.10;4.18;;;;;;;30.64;30.49;100456.03;4270579;33;20105;-80
2021/06/16 07:06:18;;;;;;;10.15;4.62;;;;;;;29.48;32.29;100464.22;4289037;33;20175;-80
2021/06/16 07:08:56;;;;;;;6.10;3.50;;;;;;;29.47;33.99;100462.47;4327818;33;20112;-79
2021/06/16 07:11:30;;;;;;;9.02;4.47;;;;;;;30.43;32.05;100466.91;4310385;33;20624;-80
2021/06/16 07:14:05;;;;;;;11.20;4.78;;;;;;;29.42;31.97;100462.88;4302435;33;20120;-80
2021/06/16 07:16:44;;;;;;;;;;;;;;;;;;;;;
2021/06/16 07:19:27;;;;;;;10.10;4.72;;;;;;;28.48;34.81;100454.28;4314935;33;19988;-80
2021/06/16 07:22:30;;;;;;;7.18;4.60;;;;;;;28.16;36.05;100459.50;4313305;33;20134;-80
2021/06/16 07:25:43;;;;;;;;;;;;;;;;;;;;;
2021/06/16 07:28:12;;;;;;;8.88;4.35;;;;;;;28.24;35.30;100461.63;4373172;32;20201;-81
2021/06/16 07:31:35;;;;;;;11.57;4.37;;;;;;;29.22;34.79;100464.53;4361212;32;20120;-80
2021/06/16 07:34:15;;;;;;;5.25;3.62;;;;;;;29.04;34.47;100469.62;4369326;32;20512;-81
2021/06/16 07:36:58;;;;;;;;;;;;;;;;;;;;;
2021/06/16 07:39:59;;;;;;;;;;;;;;;;;;;;;
2021/06/16 07:43:11;;;;;;;;;;;;;;;;;;;;;
2021/06/16 07:46:01;;;;;;;5.80;3.60;;;;;;;30.90;30.57;100465.41;4371243;32;20297;-81
2021/06/16 07:48:50;;;;;;;8.07;4.43;;;;;;;31.07;29.39;100461.19;4386626;32;20087;-81
2021/06/16 07:52:07;;;;;;;5.20;3.42;;;;;;;31.16;31.04;100464.91;4361353;32;20111;-80
2021/06/16 07:55:25;;;;;;;;;;;;;;;;;;;;;
2021/06/16 07:58:13;;;;;;;5.97;3.83;;;;;;;30.27;31.34;100467.41;4372155;32;20298;-81
2021/06/16 08:01:05;;;;;;;;;;;;;;;;;;;;;
2021/06/16 08:04:04;;;;;;;5.47;3.75;;;;;;;29.92;30.67;100470.44;4327607;33;20095;-81
2021/06/16 08:06:44;;;;;;;8.15;3.85;;;;;;;30.90;29.37;100465.41;4328723;33;20112;-80
2021/06/16 08:09:35;;;;;;;7.97;4.40;;;;;;;30.96;31.05;100456.72;4328726;33;20116;-80
2021/06/16 08:12:24;;;;;;;;;;;;;;;;;;;;;
2021/06/16 08:14:58;;;;;;;5.05;2.90;;;;;;;31.62;29.46;100457.97;4328227;33;20104;-81
2021/06/16 08:17:55;;;;;;;;;;;;;;;;;;;;;
2021/06/16 08:21:00;;;;;;;5.30;3.00;;;;;;;29.92;31.77;100463.19;4289121;33;20112;-81
2021/06/16 08:23:41;;;;;;;4.75;2.53;;;;;;;29.18;31.64;100472.06;4299531;33;20112;-80
2021/06/16 08:26:29;;;;;;;4.28;2.22;;;;;;;29.53;30.84;100470.97;4298968;33;20096;-80
2021/06/16 08:29:26;;;;;;;5.57;3.22;;;;;;;29.64;31.19;100480.91;4275226;33;20097;-80
2021/06/16 08:32:27;;;;;;;5.10;2.60;;;;;;;29.29;32.01;100481.97;4300019;33;20505;-80
2021/06/16 08:35:12;;;;;;;5.00;2.60;;;;;;;29.39;32.64;100482.09;4299264;33;20187;-80
2021/06/16 08:38:31;;;;;;;10.65;2.85;;;;;;;29.48;30.62;100472.34;4322982;32;20117;-80
2021/06/16 08:41:18;;;;;;;4.85;2.75;;;;;;;29.52;30.85;100479.19;4384138;32;20237;-80
2021/06/16 08:44:31;;;;;;;5.15;2.60;;;;;;;30.80;28.25;100469.09;4380551;32;20739;-80
2021/06/16 08:47:13;;;;;;;6.30;2.75;;;;;;;30.43;32.28;100488.59;4373740;32;20506;-81
2021/06/16 08:49:54;;;;;;;7.00;3.70;;;;;;;31.38;29.13;100475.53;4389135;32;20157;-82
2021/06/16 08:52:24;;;;;;;7.30;2.87;;;;;;;31.29;29.95;100487.22;4384082;32;20213;-80
2021/06/16 08:54:52;;;;;;;3.85;2.47;;;;;;;30.32;30.38;100486.81;4359224;32;20465;-81
2021/06/16 08:57:21;;;;;;;6.35;3.30;;;;;;;29.95;29.69;100487.28;4360875;32;20503;-80
2021/06/16 09:00:04;;;;;;;10.13;3.58;;;;;;;30.38;29.44;100488.16;4361066;32;20098;-80
2021/06/16 09:02:34;;;;;;;4.40;2.62;;;;;;;30.27;29.20;100486.41;4359997;32;20103;-80
2021/06/16 09:05:01;;;;;;;6.82;2.95;;;;;;;30.38;29.09;100491.72;4359627;32;20138;-80
2021/06/16 09:07:37;;;;;;;3.72;2.70;;;;;;;30.41;29.60;100485.16;4360425;32;20801;-81
2021/06/16 09:10:08;;;;;;;5.60;3.05;;;;;;;31.32;27.84;100481.50;4379318;32;20151;-80
2021/06/16 09:12:57;;;;;;;3.35;2.35;;;;;;;31.95;26.92;100488.44;4371294;32;20086;-81
2021/06/16 09:15:30;;;;;;;4.70;2.50;;;;;;;31.21;28.44;100478.94;4372494;32;20123;-80
2021/06/16 09:18:21;;;;;;;5.82;2.72;;;;;;;30.79;28.34;100481.78;4336508;33;20119;-80
2021/06/16 09:20:55;;;;;;;5.47;2.85;;;;;;;30.54;29.36;100481.25;4327799;33;20174;-80
2021/06/16 09:23:25;;;;;;;4.60;2.67;;;;;;;30.29;30.51;100487.09;4327663;33;20230;-80
2021/06/16 09:26:17;;;;;;;4.87;2.70;;;;;;;30.86;30.21;100484.84;4339758;33;20130;-80
2021/06/16 09:28:50;;;;;;;8.50;3.78;;;;;;;30.21;29.75;100482.38;4327878;33;20804;-80
2021/06/16 09:31:22;;;;;;;4.75;2.25;;;;;;;30.69;30.47;100484.44;4327794;33;20105;-80
2021/06/16 09:33:58;;;;;;;4.57;2.60;;;;;;;30.39;29.99;100487.16;4317695;33;20100;-80
2021/06/16 09:36:30;;;;;;;8.32;2.53;;;;;;;30.87;28.86;100481.97;4320880;33;21080;-80
2021/06/16 09:39:13;;;;;;;8.00;3.00;;;;;;;31.42;28.33;100484.28;4337107;33;20135;-80
2021/06/16 09:42:13;;;;;;;4.12;2.53;;;;;;;31.38;28.41;100475.53;4331188;32;20095;-80
2021/06/16 09:44:51;;;;;;;5.68;2.58;;;;;;;31.34;28.21;100484.94;4369246;32;20802;-80
2021/06/16 09:47:29;;;;;;;4.93;2.40;;;;;;;31.13;27.89;100478.75;4382564;32;20126;-80
2021/06/16 09:50:39;;;;;;;5.18;2.70;;;;;;;32.35;25.95;100482.75;4364221;32;20170;-81
2021/06/16 09:53:19;;;;;;;;;;;;;;;;;;;;;
2021/06/16 09:56:25;;;;;;;4.78;2.97;;;;;;;33.09;25.13;100473.78;4387214;32;20109;-80
2021/06/16 09:58:53;;;;;;;3.03;2.33;;;;;;;33.59;24.55;100476.03;4418683;32;20106;-81
2021/06/16 10:01:55;;;;;;;5.20;3.03;;;;;;;33.13;24.71;100477.03;4430896;32;20462;-80
2021/06/16 10:05:03;;;;;;;4.50;2.42;;;;;;;33.57;25.06;100474.47;4419395;32;20089;-81
2021/06/16 10:07:38;;;;;;;4.20;2.47;;;;;;;32.84;24.90;100472.59;4433061;32;20117;-80
2021/06/16 10:10:17;;;;;;;8.70;2.70;;;;;;;33.88;24.01;100467.56;4432323;32;20167;-80
2021/06/16 10:12:58;;;;;;;4.32;2.97;;;;;;;34.23;24.20;100470.41;4420600;32;20468;-81
2021/06/16 10:15:45;;;;;;;4.40;2.47;;;;;;;35.04;24.82;100464.53;4404996;32;20117;-80
2021/06/16 10:18:23;;;;;;;;;;;;;;;;;;;;;
2021/06/16 10:20:57;;;;;;;4.75;2.65;;;;;;;33.67;25.59;100475.22;4421787;32;20112;-81
2021/06/16 10:23:25;;;;;;;4.80;2.72;;;;;;;32.78;25.37;100468.59;4420495;32;20149;-81
2021/06/16 10:26:05;;;;;;;3.58;2.55;;;;;;;32.51;26.11;100480.31;4420766;32;20509;-80
2021/06/16 10:29:14;;;;;;;;;;;;;;;;;;;;;
2021/06/16 10:32:11;;;;;;;104.05;11.90;;;;;;;33.46;25.48;100465.47;4418440;32;20113;-80
2021/06/16 10:34:58;;;;;;;6.37;2.90;;;;;;;33.58;24.73;100466.12;4420709;32;20126;-80
2021/06/16 10:38:01;;;;;;;;;;;;;;;;;;;;;
2021/06/16 10:40:51;;;;;;;3.60;2.62;;;;;;;32.52;25.26;100463.00;4421281;32;20124;-80
2021/06/16 10:43:44;;;;;;;5.28;2.92;;;;;;;33.76;25.66;100463.38;4436599;32;20143;-80
2021/06/16 10:46:16;;;;;;;5.25;2.20;;;;;;;34.82;23.44;100453.16;4417914;32;20114;-81
2021/06/16 10:49:07;;;;;;;7.60;2.58;;;;;;;35.24;24.17;100448.72;4424107;32;20375;-80
2021/06/16 10:51:39;;;;;;;9.00;2.65;;;;;;;36.20;22.69;100442.59;4420414;32;20147;-81
2021/06/16 10:54:18;;;;;;;6.90;2.75;;;;;;;35.59;22.32;100454.94;4421014;32;20082;-81
2021/06/16 10:56:57;;;;;;;2.87;2.03;;;;;;;35.65;22.48;100446.94;4433435;32;20113;-80
2021/06/16 10:59:52;;;;;;;;;;;;;;;;;;;;;
2021/06/16 11:02:24;;;;;;;4.20;2.65;;;;;;;33.61;24.77;100460.34;4421208;32;20116;-80
2021/06/16 11:05:26;;;;;;;5.20;2.40;;;;;;;34.11;23.63;100448.84;4435149;32;20488;-80
2021/06/16 11:08:29;;;;;;;4.75;2.60;;;;;;;34.74;25.18;100441.34;4436501;32;20105;-82
2021/06/16 11:11:17;;;;;;;6.20;2.65;;;;;;;35.69;22.42;100439.22;4404240;32;20116;-81
2021/06/16 11:14:25;;;;;;;4.80;2.90;;;;;;;35.31;21.50;100438.84;4418575;32;20146;-81
2021/06/16 11:17:08;;;;;;;3.80;2.85;;;;;;;34.87;22.80;100440.91;4419014;32;20121;-80
2021/06/16 11:19:44;;;;;;;4.28;2.03;;;;;;;34.64;22.53;100438.78;4419997;32;20106;-81
2021/06/16 11:25:56;;;;;;;;;;;;;;;;;;;;;
2021/06/16 11:29:04;;;;;;;;;;;;;;;;;;;;;
2021/06/16 11:32:48;;;;;;;;;;;;;;;;;;;;;
2021/06/16 11:35:45;;;;;;;9.43;2.55;;;;;;;35.96;22.81;100431.69;4388632;32;20161;-81
2021/06/16 11:38:30;;;;;;;;;;;;;;;;;;;;;
2021/06/16 11:41:20;;;;;;;10.35;3.03;;;;;;;37.33;19.99;100434.09;4403283;32;20119;-81
2021/06/16 11:44:37;;;;;;;3.65;2.33;;;;;;;37.13;20.18;100427.41;4366700;32;20117;-81
2021/06/16 11:47:14;;;;;;;4.10;2.50;;;;;;;37.28;19.85;100423.69;4445274;32;20120;-81
2021/06/16 11:49:58;;;;;;;10.30;2.62;;;;;;;37.67;21.04;100421.84;4419599;32;20113;-81
2021/06/16 11:53:44;;;;;;;3.97;2.70;;;;;;;36.79;20.49;100425.84;4412217;32;20119;-81
2021/06/16 11:56:18;;;;;;;8.15;3.25;;;;;;;35.62;21.78;100424.53;4407404;32;20503;-80
2021/06/16 11:58:52;;;;;;;4.68;2.65;;;;;;;35.96;22.53;100413.41;4416592;32;20093;-81
2021/06/16 12:02:12;;;;;;;;;;;;;;;;;;;;;
2021/06/16 12:05:06;;;;;;;6.80;3.03;;;;;;;35.77;24.42;100409.16;4414017;32;20132;-80
2021/06/16 12:07:47;;;;;;;5.85;2.20;;;;;;;34.79;23.07;100411.72;4431495;32;20123;-80
2021/06/16 12:10:27;;;;;;;3.78;2.22;;;;;;;35.41;22.81;100408.62;4444336;32;20098;-81
2021/06/16 12:13:24;;;;;;;7.03;2.67;;;;;;;35.04;23.50;100399.00;4432018;32;20470;-81
2021/06/16 12:16:13;;;;;;;;;;;;;;;;;;;;;
2021/06/16 12:18:42;;;;;;;4.12;2.37;;;;;;;34.74;23.24;100403.16;4421074;32;20475;-81
2021/06/16 12:21:15;;;;;;;3.25;2.10;;;;;;;35.15;22.34;100400.56;4420819;32;20236;-80
2021/06/16 12:23:46;;;;;;;4.75;2.15;;;;;;;34.62;24.26;100394.41;4419350;32;20097;-80
2021/06/16 12:26:38;;;;;;;5.87;2.50;;;;;;;34.18;24.08;100407.31;4370438;32;20110;-81
2021/06/16 12:29:44;;;;;;;6.45;2.80;;;;;;;33.38;25.45;100405.47;4366324;32;20129;-81
2021/06/16 12:32:50;;;;;;;;;;;;;;;;;;;;;
2021/06/16 12:38:54;;;;;;;4.05;2.08;;;;;;;33.93;21.61;100399.81;4364127;32;20354;-81
2021/06/16 12:41:48;;;;;;;2.92;2.22;;;;;;;32.61;22.46;100395.09;4346626;32;20133;-80
2021/06/16 12:44:45;;;;;;;2.92;1.90;;;;;;;32.71;24.08;100388.63;4342328;33;20119;-80
2021/06/16 12:47:29;;;;;;;;;;;;;;;;;;;;;
2021/06/16 12:50:06;;;;;;;5.20;2.05;;;;;;;31.72;24.39;100392.78;4386014;32;20125;-80
2021/06/16 12:52:50;;;;;;;3.70;2.10;;;;;;;32.02;24.61;100389.03;4374099;32;21031;-81
2021/06/16 12:55:58;;;;;;;5.93;2.33;;;;;;;32.26;23.59;100381.19;4376574;32;20174;-81
2021/06/16 12:58:29;;;;;;;5.62;1.65;;;;;;;33.33;22.90;100393.37;4421809;32;20163;-81
2021/06/16 13:01:19;;;;;;;9.80;2.00;;;;;;;33.33;21.10;100396.09;4411273;32;20118;-81
2021/06/16 13:04:11;;;;;;;5.53;1.90;;;;;;;33.37;22.39;100390.16;4424179;32;20447;-82
2021/06/16 13:07:03;;;;;;;4.43;2.00;;;;;;;34.33;22.60;100387.47;4408366;32;20093;-81
2021/06/16 13:09:38;;;;;;;4.70;1.90;;;;;;;33.81;21.11;100383.91;4416372;32;20156;-82
2021/06/16 13:12:18;;;;;;;7.45;1.90;;;;;;;32.63;24.37;100393.09;4426967;32;20117;-81
2021/06/16 13:15:02;;;;;;;4.35;1.90;;;;;;;32.84;25.92;100381.94;4431837;32;20148;-81
2021/06/16 13:17:56;;;;;;;3.90;1.77;;;;;;;33.33;23.73;100382.47;4410750;32;20054;-81
2021/06/16 13:20:41;;;;;;;6.87;1.92;;;;;;;33.76;25.08;100378.06;4418733;32;20208;-81
2021/06/16 13:23:35;;;;;;;4.12;1.70;;;;;;;33.90;21.76;100377.47;4416611;32;20110;-81
2021/06/16 13:26:21;;;;;;;2.45;1.80;;;;;;;33.56;22.09;100380.13;4418066;32;20490;-81
2021/06/16 13:29:03;;;;;;;2.92;1.67;;;;;;;32.87;22.01;100389.81;4430674;32;20131;-81
2021/06/16 13:31:33;;;;;;;4.05;1.50;;;;;;;33.32;21.79;100383.47;4436367;32;20101;-81
2021/06/16 13:34:22;;;;;;;3.72;1.35;;;;;;;34.18;20.75;100374.59;4416482;32;20452;-80
2021/06/16 13:37:03;;;;;;;2.37;1.42;;;;;;;34.36;20.57;100370.78;4429246;32;20105;-80
2021/06/16 13:39:43;;;;;;;6.28;1.70;;;;;;;34.42;25.29;100366.53;4432642;32;20108;-80
2021/06/16 13:42:32;;;;;;;3.40;2.30;;;;;;;32.81;23.46;100377.66;4431205;32;20444;-81
2021/06/16 13:45:29;;;;;;;;;;;;;;;;;;;;;
2021/06/16 13:48:09;;;;;;;;;;;;;;;;;;;;;
2021/06/16 13:50:45;;;;;;;1.98;1.40;;;;;;;31.76;24.63;100377.91;4421076;32;20090;-81
2021/06/16 13:53:18;;;;;;;8.02;3.03;;;;;;;32.55;22.88;100364.78;4429597;32;20549;-81
2021/06/16 13:55:51;;;;;;;2.83;2.00;;;;;;;32.13;24.98;100364.38;4416272;32;20556;-81
2021/06/16 13:58:20;;;;;;;2.70;1.98;;;;;;;31.12;26.46;100369.37;4417947;32;20133;-81
2021/06/16 14:00:52;;;;;;;6.05;2.33;;;;;;;32.11;24.80;100366.37;4432414;32;20116;-81
2021/06/16 14:03:20;;;;;;;3.15;1.90;;;;;;;32.31;25.64;100354.44;4420743;32;20379;-81
2021/06/16 14:05:49;;;;;;;2.28;2.03;;;;;;;32.20;26.17;100364.62;4432597;32;20138;-81
2021/06/16 14:08:17;;;;;;;6.30;1.77;;;;;;;32.63;24.13;100355.87;4419488;32;20159;-81
2021/06/16 14:10:44;;;;;;;4.70;2.10;;;;;;;32.60;24.25;100356.19;4423126;32;20168;-82
2021/06/16 14:13:21;;;;;;;2.75;1.95;;;;;;;32.31;24.04;100357.16;4423016;32;20605;-82
2021/06/16 14:15:53;;;;;;;2.67;2.15;;;;;;;33.04;24.34;100350.91;4419518;32;20517;-80
2021/06/16 14:18:28;;;;;;;4.03;2.20;;;;;;;32.80;23.48;100349.59;4417391;32;20157;-81
2021/06/16 14:20:57;;;;;;;7.47;2.33;;;;;;;32.97;24.75;100355.19;4418042;32;20169;-81
2021/06/16 14:23:33;;;;;;;4.72;2.03;;;;;;;32.64;26.81;100354.84;4405958;32;20107;-81
2021/06/16 14:26:11;;;;;;;8.05;2.22;;;;;;;32.67;23.73;100351.81;4418005;32;20105;-81
2021/06/16 14:29:03;;;;;;;4.62;2.03;;;;;;;32.96;23.78;100359.78;4410701;32;20117;-82
2021/06/16 14:31:48;;;;;;;7.28;2.85;;;;;;;33.38;23.23;100356.44;4417669;32;20561;-81
2021/06/16 14:34:36;;;;;;;2.12;1.50;;;;;;;33.53;23.77;100356.78;4415182;32;20112;-81
2021/06/16 14:37:17;;;;;;;6.40;1.83;;;;;;;33.19;23.35;100362.94;4417132;32;20102;-81
2021/06/16 14:39:47;;;;;;;4.22;1.83;;;;;;;32.47;24.30;100350.22;4418290;32;20582;-82
2021/06/16 14:42:14;;;;;;;2.35;1.87;;;;;;;32.62;26.07;100350.56;4418217;32;20105;-81
2021/06/16 14:44:41;;;;;;;2.97;1.67;;;;;;;32.61;23.84;100352.44;4407246;32;20112;-81
2021/06/16 14:47:09;;;;;;;2.40;1.77;;;;;;;33.32;23.66;100348.91;4406971;32;20141;-82
2021/06/16 14:49:36;;;;;;;6.45;1.75;;;;;;;33.65;22.60;100355.53;4429868;32;20109;-82
2021/06/16 14:52:03;;;;;;;6.80;2.17;;;;;;;32.70;24.04;100359.69;4421818;32;20160;-82
2021/06/16 14:54:30;;;;;;;2.37;1.75;;;;;;;32.91;23.97;100353.09;4421009;32;20149;-82
2021/06/16 14:56:57;;;;;;;3.20;1.60;;;;;;;33.39;23.19;100351.88;4422063;32;20157;-83
2021/06/16 14:59:24;;;;;;;4.82;2.10;;;;;;;33.59;23.53;100342.53;4433523;32;20110;-83
2021/06/16 15:01:51;;;;;;;4.32;1.90;;;;;;;34.16;22.10;100346.66;4421875;32;20132;-83